2012-02-19から1日間の記事一覧

中古品が売れた

pc

\6,900:I・Oデータ LCD-DTV22BR:地デジ付き液晶モニタ \1,500:ASUS EAH4550:ビデオカード \0,000:NEC AtermBR1500:LANルータ ※古いので \0,000:玄人志向 S-ATA×4chカード ※ケーブルが4本中2本しかなかったので合計\8,400

toeic英文法出るとこだけ

昨日ののこり5dayと最後の模擬テストまで2時間で終わった。

Aviation Digital Data Service (ADDS)

Aviation Digital Data Service (ADDS)Output produced by TAFs form (0518 UTC 19 February 2012) found at http://aviationweather.gov/adds/tafs/ RJFR 190500Z 29013KT 9999 FEW025 SCT040 04/M06 Q1024 RJFR 190400Z 29014KT 9999 FEW020 SCT035 04/M06…